createdAt,value
2023-04-15T00:00:00.395Z,62.31
2023-04-15T00:05:00.408Z,61.75
2023-04-15T00:10:00.783Z,62.67
2023-04-15T00:15:00.370Z,63.37
2023-04-15T00:20:00.535Z,63.47
2023-04-15T00:25:00.443Z,63.63
2023-04-15T00:30:00.377Z,64.32
2023-04-15T00:35:00.360Z,64.30
2023-04-15T00:40:00.339Z,64.44
2023-04-15T00:45:00.487Z,65.21
2023-04-15T00:50:00.447Z,64.90
2023-04-15T00:55:00.761Z,65.64
2023-04-15T01:00:00.383Z,65.78
2023-04-15T01:05:00.421Z,65.47
2023-04-15T01:10:01.330Z,64.42
2023-04-15T01:15:00.920Z,65.04
2023-04-15T01:20:00.752Z,65.41
2023-04-15T01:25:05.983Z,65.67
2023-04-15T01:30:00.322Z,65.78
2023-04-15T01:35:00.409Z,66.25
2023-04-15T01:40:00.475Z,66.26
2023-04-15T01:45:00.384Z,66.97
2023-04-15T01:50:00.396Z,67.55
2023-04-15T01:55:00.345Z,67.54
2023-04-15T02:00:00.372Z,68.36
2023-04-15T02:05:00.356Z,67.99
2023-04-15T02:10:00.402Z,67.69
2023-04-15T02:15:00.480Z,68.02
2023-04-15T02:20:00.708Z,68.50
2023-04-15T02:25:00.377Z,68.84
2023-04-15T02:30:00.441Z,68.77
2023-04-15T02:35:02.172Z,69.96
2023-04-15T02:40:00.356Z,70.40
2023-04-15T02:45:00.360Z,69.87
2023-04-15T02:50:02.657Z,70.57
2023-04-15T02:55:00.461Z,70.03
2023-04-15T03:00:00.327Z,70.34
2023-04-15T03:05:00.384Z,70.76
2023-04-15T03:10:00.336Z,70.70
2023-04-15T03:15:00.323Z,71.70
2023-04-15T03:20:01.623Z,71.71
2023-04-15T03:25:00.420Z,72.22
2023-04-15T03:30:00.330Z,71.57
2023-04-15T03:35:00.361Z,71.21
2023-04-15T03:40:00.712Z,71.01
2023-04-15T03:45:00.339Z,71.63
2023-04-15T03:50:00.354Z,71.12
2023-04-15T03:55:00.381Z,72.26
2023-04-15T04:00:00.339Z,72.39
2023-04-15T04:05:00.332Z,72.32
2023-04-15T04:10:00.341Z,72.27
2023-04-15T04:15:00.326Z,72.59
2023-04-15T04:20:00.408Z,72.80
2023-04-15T04:25:00.416Z,73.52
2023-04-15T04:30:00.730Z,73.60
2023-04-15T04:35:00.369Z,72.94
2023-04-15T04:40:00.401Z,73.00
2023-04-15T04:45:00.349Z,73.89
2023-04-15T04:50:00.338Z,73.70
2023-04-15T04:55:00.351Z,74.24
2023-04-15T05:00:01.204Z,73.97
2023-04-15T05:05:00.345Z,74.87
2023-04-15T05:10:00.353Z,74.54
2023-04-15T05:15:00.365Z,74.23
2023-04-15T05:20:01.237Z,74.39
2023-04-15T05:25:00.417Z,74.72
2023-04-15T05:30:00.453Z,74.75
2023-04-15T05:35:00.343Z,75.13
2023-04-15T05:40:00.418Z,75.20
2023-04-15T05:45:00.406Z,75.17
2023-04-15T05:50:00.375Z,76.43
2023-04-15T05:55:00.356Z,76.15
2023-04-15T06:00:00.348Z,74.84
2023-04-15T06:05:00.555Z,74.60
2023-04-15T06:10:00.337Z,74.34
2023-04-15T06:15:00.857Z,75.55
2023-04-15T06:20:00.375Z,74.85
2023-04-15T06:25:00.442Z,75.03
2023-04-15T06:30:00.336Z,74.97
2023-04-15T06:35:00.497Z,75.01
2023-04-15T06:40:00.378Z,75.51
2023-04-15T06:45:00.520Z,74.81
2023-04-15T06:50:00.340Z,74.35
2023-04-15T06:55:00.767Z,73.59
2023-04-15T07:00:01.746Z,74.16
2023-04-15T07:05:00.350Z,73.97
2023-04-15T07:10:00.338Z,74.37
2023-04-15T07:15:00.455Z,73.71
2023-04-15T07:20:00.350Z,72.95
2023-04-15T07:25:00.387Z,70.56
2023-04-15T07:30:00.541Z,65.40
2023-04-15T07:35:00.347Z,63.32
2023-04-15T07:40:00.571Z,63.22
2023-04-15T07:45:00.458Z,58.57
2023-04-15T07:50:00.759Z,56.18
2023-04-15T07:55:00.380Z,55.23
2023-04-15T08:00:02.649Z,53.10
2023-04-15T08:05:00.366Z,50.01
2023-04-15T08:10:00.344Z,49.47
2023-04-15T08:15:00.486Z,49.11
2023-04-15T08:20:00.386Z,46.96
2023-04-15T08:25:00.363Z,45.22
2023-04-15T08:30:02.127Z,46.47
2023-04-15T08:35:00.414Z,46.05
2023-04-15T08:40:00.368Z,46.66
2023-04-15T08:45:03.623Z,45.35
2023-04-15T08:50:02.866Z,46.33
2023-04-15T08:55:01.885Z,47.49
2023-04-15T09:00:05.281Z,46.93
2023-04-15T09:05:00.363Z,47.33
2023-04-15T09:10:00.416Z,48.34
2023-04-15T09:15:00.975Z,49.68
2023-04-15T09:20:08.900Z,48.62
2023-04-15T09:25:00.343Z,49.83
2023-04-15T09:30:00.364Z,49.44
2023-04-15T09:35:09.848Z,48.35
2023-04-15T09:40:00.384Z,47.14
2023-04-15T09:45:10.731Z,46.16
2023-04-15T09:50:00.666Z,45.00
2023-04-15T09:55:00.480Z,44.72
2023-04-15T10:00:00.448Z,43.56
2023-04-15T10:05:01.239Z,45.17
2023-04-15T10:10:00.838Z,44.73
2023-04-15T10:15:03.840Z,46.03
2023-04-15T10:20:02.654Z,45.17
2023-04-15T10:25:01.799Z,45.09
2023-04-15T10:30:00.541Z,45.81
2023-04-15T10:35:01.148Z,45.75
2023-04-15T10:40:00.513Z,44.20
2023-04-15T10:45:00.462Z,45.47
2023-04-15T10:50:01.151Z,43.33
2023-04-15T10:55:03.102Z,42.74
2023-04-15T11:00:08.360Z,44.36
2023-04-15T11:05:00.364Z,44.56
2023-04-15T11:10:00.673Z,43.69
2023-04-15T11:15:20.234Z,43.59
2023-04-15T11:20:00.418Z,45.16
2023-04-15T11:25:00.387Z,42.72
2023-04-15T11:30:00.331Z,43.65
2023-04-15T11:35:00.337Z,41.87
2023-04-15T11:40:01.599Z,43.04
2023-04-15T11:45:08.828Z,42.93
2023-04-15T11:50:14.125Z,43.88
2023-04-15T11:55:03.118Z,45.57
2023-04-15T12:00:00.348Z,45.21
2023-04-15T12:05:03.369Z,44.79
2023-04-15T12:10:02.206Z,45.12
2023-04-15T12:15:00.404Z,43.23
2023-04-15T12:20:00.381Z,43.92
2023-04-15T12:25:00.346Z,45.36
2023-04-15T12:30:07.942Z,45.23
2023-04-15T12:35:00.358Z,44.04
2023-04-15T12:40:00.350Z,43.28
2023-04-15T12:45:00.388Z,43.89
2023-04-15T12:50:00.371Z,45.15
2023-04-15T12:55:00.397Z,45.20
2023-04-15T13:00:00.334Z,45.82
2023-04-15T13:05:00.419Z,46.60
2023-04-15T13:10:00.380Z,46.97
2023-04-15T13:15:00.337Z,47.64
2023-04-15T13:20:00.405Z,47.40
2023-04-15T13:25:00.351Z,47.61
2023-04-15T13:30:00.365Z,47.66
2023-04-15T13:35:00.544Z,48.28
2023-04-15T13:40:00.372Z,48.71
2023-04-15T13:45:00.354Z,48.09
2023-04-15T13:50:00.387Z,49.12
2023-04-15T13:55:11.763Z,50.08
2023-04-15T14:00:01.176Z,51.21
2023-04-15T14:05:00.482Z,51.26
2023-04-15T14:10:00.411Z,52.22
2023-04-15T14:15:00.396Z,53.27
2023-04-15T14:20:00.455Z,51.11
2023-04-15T14:25:00.334Z,50.04
2023-04-15T14:30:00.341Z,51.21
2023-04-15T14:35:00.487Z,51.47
2023-04-15T14:40:00.374Z,53.39
2023-04-15T14:45:00.358Z,54.27
2023-04-15T14:50:00.564Z,55.46
2023-04-15T14:55:00.333Z,55.47
2023-04-15T15:00:00.450Z,57.04
2023-04-15T15:05:01.239Z,57.68
2023-04-15T15:10:00.362Z,59.08
2023-04-15T15:15:04.901Z,59.61
2023-04-15T15:20:00.816Z,59.27
2023-04-15T15:25:00.323Z,59.03
2023-04-15T15:30:00.516Z,58.82
2023-04-15T15:35:00.686Z,58.69
2023-04-15T15:40:00.644Z,58.79
2023-04-15T15:45:02.274Z,59.33
2023-04-15T15:50:00.490Z,58.20
2023-04-15T15:55:00.467Z,58.32
2023-04-15T16:00:11.024Z,58.90
2023-04-15T16:05:00.753Z,61.23
2023-04-15T16:10:00.388Z,60.23
2023-04-15T16:15:00.424Z,62.01
2023-04-15T16:20:01.385Z,62.55
2023-04-15T16:25:00.450Z,63.64
2023-04-15T16:30:00.466Z,64.13
2023-04-15T16:35:00.415Z,64.06
2023-04-15T16:40:00.948Z,63.82
2023-04-15T16:45:00.380Z,64.93
2023-04-15T16:50:00.374Z,64.86
2023-04-15T16:55:00.443Z,65.64
2023-04-15T17:00:00.437Z,66.56
2023-04-15T17:05:00.434Z,66.36
2023-04-15T17:10:00.378Z,66.40
2023-04-15T17:15:00.339Z,66.17
2023-04-15T17:20:00.403Z,66.84
2023-04-15T17:25:00.428Z,66.78
2023-04-15T17:30:00.407Z,67.44
2023-04-15T17:35:02.184Z,67.49
2023-04-15T17:40:00.874Z,67.82
2023-04-15T17:45:00.327Z,67.61
2023-04-15T17:50:00.328Z,68.79
2023-04-15T17:55:00.343Z,68.99
2023-04-15T18:00:00.389Z,68.55
2023-04-15T18:05:00.499Z,68.33
2023-04-15T18:10:00.360Z,68.27
2023-04-15T18:15:00.326Z,68.92
2023-04-15T18:20:00.419Z,68.36
2023-04-15T18:25:00.359Z,68.30
2023-04-15T18:30:00.413Z,69.57
2023-04-15T18:35:00.714Z,69.66
2023-04-15T18:40:00.510Z,70.06
2023-04-15T18:45:00.344Z,70.37
2023-04-15T18:50:00.356Z,70.65
2023-04-15T18:55:00.383Z,70.72
2023-04-15T19:00:00.724Z,70.86
2023-04-15T19:05:00.346Z,70.44
2023-04-15T19:10:01.325Z,70.86
2023-04-15T19:15:00.354Z,70.44
2023-04-15T19:20:00.369Z,71.24
2023-04-15T19:25:00.424Z,71.58
2023-04-15T19:30:00.427Z,71.71
2023-04-15T19:35:00.488Z,72.80
2023-04-15T19:40:00.343Z,73.72
2023-04-15T19:45:00.433Z,72.83
2023-04-15T19:50:00.559Z,73.85
2023-04-15T19:55:00.361Z,75.42
2023-04-15T20:00:00.360Z,75.87
2023-04-15T20:05:00.377Z,75.54
2023-04-15T20:10:00.403Z,74.84
2023-04-15T20:15:00.359Z,75.05
2023-04-15T20:20:00.840Z,75.94
2023-04-15T20:25:01.419Z,75.87
2023-04-15T20:30:00.490Z,75.22
2023-04-15T20:35:01.396Z,75.26
2023-04-15T20:40:00.467Z,75.04
2023-04-15T20:45:00.516Z,75.34
2023-04-15T20:50:00.545Z,74.96
2023-04-15T20:55:00.407Z,75.35
2023-04-15T21:00:00.411Z,75.25
2023-04-15T21:05:00.376Z,75.04
2023-04-15T21:10:00.437Z,75.04
2023-04-15T21:15:00.425Z,75.05
2023-04-15T21:20:00.881Z,75.45
2023-04-15T21:25:00.332Z,75.79
2023-04-15T21:30:00.540Z,75.80
2023-04-15T21:35:00.366Z,76.13
2023-04-15T21:40:00.356Z,76.20
2023-04-15T21:45:00.360Z,76.01
2023-04-15T21:50:00.367Z,76.66
2023-04-15T21:55:00.383Z,77.47
2023-04-15T22:00:01.739Z,76.67
2023-04-15T22:05:00.406Z,78.72
2023-04-15T22:10:00.409Z,79.52
2023-04-15T22:15:00.652Z,80.84
2023-04-15T22:20:00.456Z,81.71
2023-04-15T22:25:00.338Z,81.25
2023-04-15T22:30:00.565Z,81.52
2023-04-15T22:35:00.486Z,82.00
2023-04-15T22:40:00.402Z,81.31
2023-04-15T22:45:00.350Z,81.67
2023-04-15T22:50:00.344Z,80.89
2023-04-15T22:55:00.371Z,81.61
2023-04-15T23:00:00.365Z,80.31
2023-04-15T23:05:00.747Z,81.76
2023-04-15T23:10:00.333Z,82.35
2023-04-15T23:15:00.364Z,82.75
2023-04-15T23:20:00.354Z,82.87
2023-04-15T23:25:00.349Z,81.86
2023-04-15T23:30:00.446Z,83.12
2023-04-15T23:35:00.352Z,82.01
2023-04-15T23:40:00.370Z,82.22
2023-04-15T23:45:00.431Z,83.56
2023-04-15T23:50:00.459Z,82.52
2023-04-15T23:55:00.327Z,82.75
